Saturday, November 18, 2017, 6:07 PM EST
Back to Local

KFAF, Fort Eustis / Felker

Location: Fort Eustis, VA, United States Lat: 37.133
Local Time: 6:07 PM EST (23:07 GMT) Lon: -76.617
Time Zone: US/Eastern Elev: 13 ft

Show me the last for .
Show Coded

Time T Td Feel RH Dir Speed Gust Alt SLP Vis Weather Sky Remarks
2017-11-18 16:58 61 49 - 64 180° 7 - 29.70 29.71 10 BKN170 None
2017-11-18 15:58 62 48 - 60 180° 10 - 29.70 29.71 10 FEW180 SCT200 None
2017-11-18 14:58 63 46 - 55 210° 12 21 29.72 29.73 10 SCT170 None
2017-11-18 13:58 61 42 - 50 210° 9 20 29.75 29.76 10 FEW180 SCT200 None
2017-11-18 12:58 59 39 - 48 190° 8 - 29.79 29.80 10 SCT180 BKN200 Pressure falling rapidly
6-hr Min Temp (1pm): 43.2°F
6-hr Max Temp (1pm): 58.8°F
2017-11-18 11:58 57 38 - 49 190° 8 - 29.85 29.86 10 SCT180 Pressure falling rapidly
2017-11-18 10:58 55 39 - 56 210° 12 - 29.91 29.92 10 CLR None
2017-11-18 09:58 51 39 - 62 200° 8 - 29.95 29.96 10 SCT170 None
2017-11-18 08:58 46 37 42 69 180° 9 - 29.97 29.98 10 FEW150 None
2017-11-18 07:58 44 36 40 72 190° 7 - 29.99 30.00 10 CLR None
2017-11-18 06:58 43 35 38 72 190° 9 - 30.01 30.02 10 CLR 6-hr Min Temp (7am): 34.3°F
6-hr Max Temp (7am): 43.5°F
2017-11-18 05:58 42 34 38 73 180° 7 - 30.03 30.04 10 CLR None
2017-11-18 04:58 42 34 38 71 190° 7 - 30.04 30.05 10 CLR None
2017-11-18 03:58 43 34 39 70 180° 6 - 30.05 30.06 10 CLR None
2017-11-18 02:58 43 35 41 74 180° 3 - 30.06 30.07 10 CLR None
2017-11-18 01:58 36 33 - 90 - Calm - 30.09 30.10 10 CLR None
2017-11-18 00:58 37 35 - 93 - Calm - 30.09 30.10 10 CLR 6-hr Min Temp (1am): 35.4°F
6-hr Max Temp (1am): 39.6°F
2017-11-17 23:58 36 35 - 94 - Calm - 30.13 30.14 10 CLR 24-hr Min Temp (12am): 35.4°F
24-hr Max Temp (12am): 53.4°F
2017-11-17 22:58 37 35 - 90 - Calm - 30.12 30.13 10 CLR None
2017-11-17 21:58 37 33 - 86 - Calm - 30.12 30.13 10 CLR None
2017-11-17 20:58 38 34 35 86 60° 3 - 30.12 30.13 10 CLR None
2017-11-17 19:58 38 34 - 84 - Calm - 30.13 30.14 10 CLR None
2017-11-17 18:58 39 35 - 84 - Calm - 30.14 30.15 9 CLR 6-hr Min Temp (7pm): 38.8°F
6-hr Max Temp (7pm): 53.4°F

Support USWX by starting your Amazon purchase here.